Time;durP1;ratioP1;P1;durP2;ratioP2;P2;SDS_P1;SDS_P2;PMS_P1;PMS_P2;Temp;Humidity;BMP_temperature;BMP_pressure;BME280_temperature;BME280_humidity;BME280_pressure;Samples;Min_cycle;Max_cycle;Signal;HPM_P1;HPM_P2
2023/04/09 00:00:22;;;;;;;11.05;9.95;;;16.10;55.70;;;;;;5071378;28;20666;-66
2023/04/09 00:02:48;;;;;;;11.20;10.18;;;16.10;55.70;;;;;;5072392;28;20185;-66
2023/04/09 00:05:14;;;;;;;10.77;9.75;;;16.10;55.70;;;;;;5072013;28;20170;-65
2023/04/09 00:07:39;;;;;;;10.48;9.48;;;16.10;55.70;;;;;;5071329;28;20171;-65
2023/04/09 00:10:05;;;;;;;10.82;9.73;;;16.10;55.70;;;;;;5071957;28;20175;-65
2023/04/09 00:12:31;;;;;;;12.02;10.82;;;16.10;55.70;;;;;;5072330;28;20182;-65
2023/04/09 00:14:56;;;;;;;10.13;9.13;;;16.00;55.70;;;;;;5071602;28;20173;-65
2023/04/09 00:17:22;;;;;;;10.40;9.40;;;16.00;55.70;;;;;;5071851;28;20170;-65
2023/04/09 00:19:47;;;;;;;10.52;9.48;;;16.00;55.70;;;;;;5072216;28;20263;-65
2023/04/09 00:22:14;;;;;;;11.70;9.93;;;16.00;55.70;;;;;;5071390;28;20178;-64
2023/04/09 00:24:39;;;;;;;11.40;10.30;;;16.00;55.70;;;;;;5072185;28;20713;-66
2023/04/09 00:27:05;;;;;;;10.82;9.75;;;16.00;55.70;;;;;;5072092;28;20273;-66
2023/04/09 00:29:30;;;;;;;10.60;9.48;;;16.00;55.70;;;;;;5071390;28;20178;-66
2023/04/09 00:31:56;;;;;;;11.68;10.48;;;16.00;55.70;;;;;;5072169;28;20182;-66
2023/04/09 00:34:21;;;;;;;10.38;9.38;;;16.10;55.70;;;;;;5071715;28;20166;-65
2023/04/09 00:36:47;;;;;;;10.80;9.70;;;16.00;55.70;;;;;;5071514;28;20216;-65
2023/04/09 00:39:13;;;;;;;10.80;9.68;;;16.00;55.70;;;;;;5071865;28;20270;-66
2023/04/09 00:41:38;;;;;;;11.05;9.95;;;16.00;55.70;;;;;;5071990;28;20233;-65
2023/04/09 00:44:04;;;;;;;11.15;9.95;;;16.00;55.70;;;;;;5071254;28;20216;-65
2023/04/09 00:46:30;;;;;;;10.88;9.80;;;16.00;55.70;;;;;;5072298;28;20182;-65
2023/04/09 00:48:56;;;;;;;11.55;10.32;;;16.00;55.70;;;;;;5071963;28;20633;-65
2023/04/09 00:51:21;;;;;;;11.00;9.90;;;16.00;55.70;;;;;;5071120;28;20186;-68
2023/04/09 00:53:47;;;;;;;11.52;10.45;;;16.00;55.70;;;;;;5072084;28;20623;-65
2023/04/09 00:56:12;;;;;;;11.15;10.05;;;16.00;55.70;;;;;;5070433;28;20173;-65
2023/04/09 00:58:39;;;;;;;11.35;10.25;;;16.00;55.70;;;;;;5069914;28;20174;-66
2023/04/09 01:01:05;;;;;;;10.95;9.85;;;16.00;55.70;;;;;;5071356;28;20589;-66
2023/04/09 01:03:30;;;;;;;10.48;9.48;;;16.00;55.70;;;;;;5070929;28;20171;-65
2023/04/09 01:06:15;;;;;;;11.10;9.73;;;15.90;55.70;;;;;;5071685;28;20181;-65
2023/04/09 01:09:08;;;;;;;10.68;9.63;;;16.00;55.80;;;;;;5070557;28;20216;-64
2023/04/09 01:11:42;;;;;;;10.77;9.75;;;15.90;55.70;;;;;;5069664;28;20178;-64
2023/04/09 01:14:10;;;;;;;11.73;10.57;;;15.90;55.80;;;;;;5070382;28;20194;-65
2023/04/09 01:16:36;;;;;;;11.35;10.27;;;15.90;55.80;;;;;;5070456;28;20226;-64
2023/04/09 01:19:38;;;;;;;10.32;9.30;;;15.90;55.80;;;;;;5071147;28;20206;-65
2023/04/09 01:22:04;;;;;;;10.77;9.68;;;15.90;55.80;;;;;;5062485;28;20260;-64
2023/04/09 01:24:46;;;;;;;10.85;9.75;;;15.90;55.80;;;;;;5074287;28;20179;-64
2023/04/09 01:27:11;;;;;;;12.38;11.00;;;15.90;55.80;;;;;;5073775;28;20166;-64
2023/04/09 01:29:47;;;;;;;11.10;10.00;;;15.90;55.80;;;;;;5074018;28;20166;-66
2023/04/09 01:32:13;;;;;;;10.05;8.88;;;15.90;55.80;;;;;;5072883;28;20239;-66
2023/04/09 01:34:38;;;;;;;10.95;9.82;;;15.90;55.80;;;;;;5074132;28;20175;-66
2023/04/09 01:37:04;;;;;;;11.50;10.30;;;15.90;55.80;;;;;;5073806;28;20527;-66
2023/04/09 01:39:30;;;;;;;10.45;9.48;;;15.90;55.80;;;;;;5073065;28;20189;-65
2023/04/09 01:41:56;;;;;;;10.25;9.25;;;15.90;55.80;;;;;;5074920;28;20263;-64
2023/04/09 01:44:22;;;;;;;11.18;9.98;;;15.90;55.80;;;;;;5074640;28;20174;-65
2023/04/09 01:46:48;;;;;;;10.57;9.20;;;15.80;55.80;;;;;;5072932;28;20694;-65
2023/04/09 01:49:14;;;;;;;10.65;9.55;;;15.90;55.80;;;;;;5073550;28;20174;-65
2023/04/09 01:51:40;;;;;;;10.98;9.82;;;15.90;55.80;;;;;;5075093;28;20247;-65
2023/04/09 01:54:05;;;;;;;11.07;9.98;;;15.90;55.90;;;;;;5072818;28;20235;-65
2023/04/09 01:56:41;;;;;;;10.75;9.75;;;15.90;55.80;;;;;;5074878;28;20170;-65
2023/04/09 01:59:07;;;;;;;10.35;9.20;;;15.90;55.90;;;;;;5074439;28;20270;-66
2023/04/09 02:01:37;;;;;;;9.52;8.68;;;15.90;55.90;;;;;;5073900;28;20301;-65
2023/04/09 02:04:04;;;;;;;10.88;9.88;;;15.90;55.90;;;;;;5074578;28;20185;-66
2023/04/09 02:06:50;;;;;;;11.00;9.90;;;15.90;55.90;;;;;;5073457;28;20183;-64
2023/04/09 02:09:16;;;;;;;10.32;9.10;;;15.90;55.90;;;;;;5074372;28;20183;-64
2023/04/09 02:11:41;;;;;;;9.63;8.73;;;15.90;55.90;;;;;;5073178;28;20174;-64
2023/04/09 02:14:07;;;;;;;9.80;8.90;;;15.90;55.90;;;;;;5072482;28;20193;-65
2023/04/09 02:16:33;;;;;;;10.00;9.10;;;15.90;55.90;;;;;;5073572;28;20178;-64
2023/04/09 02:19:01;;;;;;;10.57;9.48;;;15.80;55.90;;;;;;5072884;28;20190;-64
2023/04/09 02:21:27;;;;;;;10.93;9.88;;;15.90;56.00;;;;;;5072142;28;20224;-64
2023/04/09 02:23:54;;;;;;;9.98;8.98;;;15.80;55.90;;;;;;5074294;28;20175;-64
2023/04/09 02:26:20;;;;;;;11.13;10.02;;;15.80;55.90;;;;;;5074006;28;20170;-64
2023/04/09 02:28:45;;;;;;;10.88;9.77;;;15.80;55.90;;;;;;5073713;28;20187;-67
2023/04/09 02:31:11;;;;;;;10.05;9.05;;;15.80;55.90;;;;;;5073674;28;20163;-65
2023/04/09 02:33:36;;;;;;;9.85;8.88;;;15.80;55.90;;;;;;5074275;28;20174;-66
2023/04/09 02:36:02;;;;;;;10.77;9.63;;;15.80;55.90;;;;;;5073372;28;20174;-65
2023/04/09 02:38:27;;;;;;;11.82;10.05;;;15.80;55.90;;;;;;5073749;28;20178;-64
2023/04/09 02:40:53;;;;;;;10.45;9.45;;;15.80;55.90;;;;;;5073789;28;20636;-65
2023/04/09 02:43:19;;;;;;;10.70;9.60;;;15.80;55.90;;;;;;5072783;28;20173;-65
2023/04/09 02:45:44;;;;;;;9.32;8.38;;;15.80;55.90;;;;;;5074065;28;20261;-65
2023/04/09 02:48:10;;;;;;;10.38;9.38;;;15.80;55.90;;;;;;5073681;28;20224;-65
2023/04/09 02:50:35;;;;;;;10.85;9.52;;;15.80;55.90;;;;;;5073244;28;20200;-65
2023/04/09 02:53:01;;;;;;;10.23;9.20;;;15.80;55.90;;;;;;5073711;28;20174;-64
2023/04/09 02:55:26;;;;;;;11.32;10.23;;;15.80;55.90;;;;;;5073293;28;20171;-65
2023/04/09 02:57:52;;;;;;;9.77;8.80;;;15.80;55.90;;;;;;5072908;28;20178;-66
2023/04/09 03:00:17;;;;;;;9.57;8.63;;;15.80;56.50;;;;;;5073151;28;20217;-65
2023/04/09 03:02:43;;;;;;;10.40;9.38;;;15.80;56.00;;;;;;5073556;28;20173;-66
2023/04/09 03:05:08;;;;;;;10.00;9.00;;;15.70;55.90;;;;;;5072475;28;20175;-65
2023/04/09 03:07:34;;;;;;;9.73;8.77;;;15.80;56.00;;;;;;5073726;28;20170;-65
2023/04/09 03:09:59;;;;;;;10.02;9.05;;;15.80;56.10;;;;;;5073282;28;20175;-65
2023/04/09 03:12:25;;;;;;;10.27;9.25;;;15.80;56.00;;;;;;5072291;28;20273;-64
2023/04/09 03:14:50;;;;;;;10.02;9.10;;;15.80;56.00;;;;;;5073145;28;20170;-65
2023/04/09 03:17:16;;;;;;;10.20;9.20;;;15.80;55.90;;;;;;5072339;28;20178;-63
2023/04/09 03:19:41;;;;;;;9.65;8.75;;;15.80;56.00;;;;;;5073039;28;20272;-64
2023/04/09 03:22:07;;;;;;;10.52;9.43;;;15.70;56.00;;;;;;5072783;28;20170;-64
2023/04/09 03:24:32;;;;;;;9.45;8.55;;;15.70;55.90;;;;;;5072332;28;20181;-64
2023/04/09 03:26:58;;;;;;;9.32;8.50;;;15.80;56.00;;;;;;5072911;28;20190;-65
2023/04/09 03:29:23;;;;;;;10.40;9.40;;;15.80;56.00;;;;;;5072626;28;20181;-65
2023/04/09 03:31:49;;;;;;;9.18;8.32;;;15.70;55.90;;;;;;5072167;28;20305;-66
2023/04/09 03:34:15;;;;;;;10.27;9.27;;;15.70;55.90;;;;;;5072544;28;20170;-66
2023/04/09 03:36:40;;;;;;;9.68;8.68;;;15.70;55.90;;;;;;5072829;28;20216;-65
2023/04/09 03:39:06;;;;;;;9.02;8.23;;;15.70;56.00;;;;;;5071881;28;20269;-65
2023/04/09 03:41:31;;;;;;;9.85;8.90;;;15.70;55.90;;;;;;5071932;28;20297;-64
2023/04/09 03:43:57;;;;;;;9.02;8.18;;;15.70;55.90;;;;;;5072910;28;20261;-65
2023/04/09 03:46:23;;;;;;;8.98;8.10;;;15.70;55.90;;;;;;5071807;28;20200;-65
2023/04/09 03:48:49;;;;;;;9.65;8.73;;;15.70;55.90;;;;;;5072518;28;20201;-64
2023/04/09 03:51:15;;;;;;;10.00;9.00;;;15.70;55.90;;;;;;5072451;28;20206;-65
2023/04/09 03:53:41;;;;;;;10.05;9.05;;;15.70;55.90;;;;;;5071786;28;20189;-65
2023/04/09 03:56:07;;;;;;;10.32;9.38;;;15.70;55.90;;;;;;5072167;28;20186;-65
2023/04/09 03:58:32;;;;;;;9.15;8.25;;;15.70;55.90;;;;;;5072647;28;20182;-65
2023/04/09 04:00:58;;;;;;;10.05;9.00;;;15.70;55.90;;;;;;5071873;28;20214;-65
2023/04/09 04:03:23;;;;;;;9.27;8.38;;;15.70;55.90;;;;;;5072283;28;20717;-65
2023/04/09 04:05:49;;;;;;;9.20;8.40;;;15.70;56.00;;;;;;5072468;28;20621;-64
2023/04/09 04:08:15;;;;;;;9.68;8.75;;;15.70;55.90;;;;;;5071345;28;20758;-64
2023/04/09 04:10:40;;;;;;;9.77;8.77;;;15.70;56.00;;;;;;5072301;28;20601;-65
2023/04/09 04:13:07;;;;;;;9.35;8.45;;;15.70;55.90;;;;;;5071905;28;20179;-64
2023/04/09 04:15:33;;;;;;;10.13;9.23;;;15.70;56.00;;;;;;5071732;28;20182;-64
2023/04/09 04:17:58;;;;;;;9.02;8.23;;;15.70;56.00;;;;;;5072346;28;20258;-64
2023/04/09 04:20:24;;;;;;;9.48;8.43;;;15.60;56.00;;;;;;5071197;28;20731;-64
2023/04/09 04:22:49;;;;;;;8.88;8.07;;;15.70;56.00;;;;;;5072080;28;20170;-64
2023/04/09 04:25:15;;;;;;;10.15;9.15;;;15.60;55.90;;;;;;5071846;28;20170;-65
2023/04/09 04:27:41;;;;;;;10.00;9.00;;;15.70;56.10;;;;;;5071315;28;20179;-65
2023/04/09 04:30:07;;;;;;;8.73;7.82;;;15.70;56.00;;;;;;5071993;28;20209;-65
2023/04/09 04:32:32;;;;;;;9.73;8.65;;;15.60;56.00;;;;;;5072037;28;20181;-67
2023/04/09 04:34:58;;;;;;;9.38;8.38;;;15.60;55.90;;;;;;5071676;28;20179;-66
2023/04/09 04:37:24;;;;;;;9.02;8.13;;;15.70;56.00;;;;;;5071836;28;20648;-65
2023/04/09 04:39:49;;;;;;;8.95;8.05;;;15.60;55.90;;;;;;5072075;28;20182;-65
2023/04/09 04:42:15;;;;;;;9.25;8.35;;;15.60;55.90;;;;;;5071042;28;20170;-64
2023/04/09 04:44:41;;;;;;;8.73;8.02;;;15.70;56.00;;;;;;5071931;28;20171;-65
2023/04/09 04:47:06;;;;;;;9.00;7.88;;;15.60;55.80;;;;;;5071554;28;20228;-65
2023/04/09 04:49:32;;;;;;;9.90;8.90;;;15.70;56.10;;;;;;5071354;28;20177;-64
2023/04/09 04:51:57;;;;;;;9.32;8.43;;;15.60;55.90;;;;;;5072049;28;20712;-65
2023/04/09 04:54:23;;;;;;;10.02;9.02;;;15.60;56.00;;;;;;5075602;28;20175;-65
2023/04/09 04:56:48;;;;;;;8.98;8.18;;;15.60;56.00;;;;;;5075418;28;20178;-66
2023/04/09 04:59:14;;;;;;;9.05;8.15;;;15.60;55.90;;;;;;5075705;28;20536;-66
2023/04/09 05:01:39;;;;;;;8.82;8.02;;;15.60;55.90;;;;;;5075855;28;20529;-65
2023/04/09 05:04:05;;;;;;;9.27;8.40;;;15.60;55.90;;;;;;5074708;28;20614;-65
2023/04/09 05:06:31;;;;;;;8.82;7.93;;;15.60;55.90;;;;;;5075764;28;20178;-64
2023/04/09 05:08:57;;;;;;;9.70;8.77;;;15.60;56.00;;;;;;5075693;28;20162;-64
2023/04/09 05:11:23;;;;;;;8.75;7.95;;;15.60;56.00;;;;;;5074584;28;20178;-65
2023/04/09 05:13:49;;;;;;;9.80;8.77;;;15.60;55.90;;;;;;5075516;28;20178;-65
2023/04/09 05:16:16;;;;;;;9.52;8.60;;;15.60;55.80;;;;;;5075452;28;20181;-64
2023/04/09 05:18:42;;;;;;;9.70;8.70;;;15.60;55.90;;;;;;5074868;28;20302;-63
2023/04/09 05:21:07;;;;;;;9.50;8.50;;;15.60;55.90;;;;;;5074800;28;20431;-64
2023/04/09 05:23:33;;;;;;;9.02;8.13;;;15.60;55.80;;;;;;5075396;28;20228;-63
2023/04/09 05:25:59;;;;;;;9.07;8.25;;;15.60;55.80;;;;;;5074890;28;20183;-63
2023/04/09 05:28:24;;;;;;;8.85;7.95;;;15.60;55.90;;;;;;5075312;28;20558;-63
2023/04/09 05:30:50;;;;;;;8.55;7.75;;;15.60;55.90;;;;;;5074580;28;20185;-65
2023/04/09 05:33:15;;;;;;;9.10;8.15;;;15.60;55.90;;;;;;5075105;28;20186;-66
2023/04/09 05:35:41;;;;;;;8.40;7.60;;;15.70;55.50;;;;;;5075268;28;20174;-64
2023/04/09 05:38:06;;;;;;;8.70;7.80;;;15.70;55.30;;;;;;5074000;28;20177;-64
2023/04/09 05:40:32;;;;;;;7.68;7.07;;;15.70;55.20;;;;;;5075053;28;20301;-64
2023/04/09 05:42:57;;;;;;;8.95;8.07;;;15.80;55.10;;;;;;5075330;28;20224;-65
2023/04/09 05:45:23;;;;;;;8.30;7.50;;;15.80;55.10;;;;;;5074105;28;20179;-64
2023/04/09 05:47:48;;;;;;;7.57;6.88;;;15.80;55.10;;;;;;5075247;28;20166;-65
2023/04/09 05:50:14;;;;;;;8.93;8.02;;;15.80;55.10;;;;;;5074600;28;20178;-65
2023/04/09 05:52:40;;;;;;;7.85;7.13;;;15.80;55.10;;;;;;5074358;28;20198;-64
2023/04/09 05:55:06;;;;;;;8.35;7.63;;;15.80;55.10;;;;;;5074834;28;20644;-66
2023/04/09 05:57:31;;;;;;;8.60;7.80;;;15.80;55.20;;;;;;5074765;28;20648;-65
2023/04/09 05:59:57;;;;;;;8.48;7.70;;;15.90;55.20;;;;;;5073995;28;20174;-65
2023/04/09 06:02:24;;;;;;;8.02;7.22;;;15.90;55.10;;;;;;5074540;28;20178;-65
2023/04/09 06:04:49;;;;;;;7.18;6.47;;;15.90;55.10;;;;;;5073863;28;20174;-65
2023/04/09 06:07:15;;;;;;;8.30;6.95;;;16.00;55.10;;;;;;5073629;28;20178;-65
2023/04/09 06:09:43;;;;;;;7.78;7.05;;;16.10;55.00;;;;;;5074803;28;20255;-65
2023/04/09 06:12:08;;;;;;;7.75;7.05;;;16.20;54.80;;;;;;5074101;28;20216;-64
2023/04/09 06:14:37;;;;;;;6.75;6.15;;;16.40;54.70;;;;;;5073762;28;20217;-65
2023/04/09 06:17:02;;;;;;;7.35;6.60;;;16.60;54.50;;;;;;5074491;28;20178;-64
2023/04/09 06:19:28;;;;;;;6.88;6.20;;;16.70;54.20;;;;;;5074045;28;20225;-64
2023/04/09 06:21:54;;;;;;;6.93;6.32;;;16.90;53.90;;;;;;5073439;28;20210;-64
2023/04/09 06:24:19;;;;;;;7.10;6.40;;;17.10;53.80;;;;;;5074224;28;20175;-64
2023/04/09 06:26:45;;;;;;;6.80;6.20;;;17.20;53.50;;;;;;5074487;28;20170;-65
2023/04/09 06:29:10;;;;;;;6.55;5.95;;;17.30;53.40;;;;;;5073158;28;20174;-65
2023/04/09 06:31:36;;;;;;;6.45;5.85;;;17.40;53.20;;;;;;5074071;28;20265;-66
2023/04/09 06:34:01;;;;;;;6.50;5.90;;;17.50;53.10;;;;;;5073918;28;20265;-66
2023/04/09 06:36:27;;;;;;;6.53;5.93;;;17.50;53.10;;;;;;5073509;28;20225;-65
2023/04/09 06:39:02;;;;;;;6.93;6.32;;;17.50;53.10;;;;;;5074190;28;20178;-65
2023/04/09 06:41:27;;;;;;;6.15;5.55;;;17.60;53.10;;;;;;5073149;28;20238;-64
2023/04/09 06:43:53;;;;;;;6.80;6.20;;;17.60;53.10;;;;;;5073981;28;20198;-65
2023/04/09 06:46:20;;;;;;;6.40;5.85;;;17.70;53.10;;;;;;5073600;28;20181;-65
2023/04/09 06:48:45;;;;;;;6.43;5.93;;;17.70;53.00;;;;;;5073194;28;20178;-65
2023/04/09 06:51:11;;;;;;;6.65;6.03;;;17.80;53.00;;;;;;5073381;28;20173;-65
2023/04/09 06:53:37;;;;;;;7.65;6.30;;;17.80;53.00;;;;;;5073636;28;20228;-65
2023/04/09 06:56:03;;;;;;;6.18;5.57;;;17.80;53.00;;;;;;5073087;28;20171;-65
2023/04/09 06:58:28;;;;;;;6.20;5.70;;;17.80;52.90;;;;;;5073251;28;20182;-65
2023/04/09 07:00:54;;;;;;;6.55;5.95;;;17.80;53.00;;;;;;5073724;28;20198;-65
2023/04/09 07:03:19;;;;;;;6.78;6.18;;;17.90;53.00;;;;;;5072486;28;20575;-65
2023/04/09 07:05:45;;;;;;;5.65;5.15;;;17.90;52.80;;;;;;5073451;28;20178;-65
2023/04/09 07:08:11;;;;;;;6.47;5.88;;;17.80;52.90;;;;;;5073286;28;20579;-64
2023/04/09 07:10:36;;;;;;;6.68;6.07;;;17.80;53.00;;;;;;5072606;28;20185;-64
2023/04/09 07:13:02;;;;;;;6.57;5.97;;;17.80;53.00;;;;;;5073201;28;20212;-65
2023/04/09 07:15:27;;;;;;;6.88;5.80;;;17.80;53.20;;;;;;5073077;28;20201;-65
2023/04/09 07:17:53;;;;;;;5.75;5.22;;;17.70;53.20;;;;;;5072379;28;20641;-64
2023/04/09 07:20:19;;;;;;;5.80;5.30;;;17.70;53.40;;;;;;5072216;28;20222;-63
2023/04/09 07:22:44;;;;;;;6.45;5.82;;;17.60;53.40;;;;;;5073064;28;20178;-64
2023/04/09 07:25:10;;;;;;;6.65;5.95;;;17.60;53.60;;;;;;5072308;28;20178;-64
2023/04/09 07:27:36;;;;;;;6.97;6.25;;;17.50;53.60;;;;;;5073167;28;20641;-65
2023/04/09 07:30:02;;;;;;;7.10;6.40;;;17.50;53.70;;;;;;5073048;28;20581;-66
2023/04/09 07:32:27;;;;;;;7.00;6.32;;;17.40;53.80;;;;;;5071989;28;20182;-65
2023/04/09 07:34:53;;;;;;;7.65;6.88;;;17.40;53.90;;;;;;5072832;28;20209;-65
2023/04/09 07:37:19;;;;;;;6.78;6.18;;;17.40;54.00;;;;;;5072163;28;20628;-64
2023/04/09 07:39:45;;;;;;;8.38;7.53;;;17.40;54.10;;;;;;5072543;28;20177;-69
2023/04/09 07:42:11;;;;;;;10.15;7.38;;;17.30;54.20;;;;;;5072546;28;20186;-69
2023/04/09 07:44:36;;;;;;;8.32;6.60;;;17.20;54.40;;;;;;5072121;28;20194;-72
2023/04/09 07:47:03;;;;;;;8.02;7.07;;;17.20;54.60;;;;;;5072599;28;20174;-72
2023/04/09 07:49:28;;;;;;;9.68;7.20;;;17.20;54.60;;;;;;5072362;28;20621;-72
2023/04/09 07:51:54;;;;;;;8.98;8.05;;;17.20;54.70;;;;;;5072255;28;20182;-70
2023/04/09 07:54:22;;;;;;;13.27;11.57;;;17.20;54.60;;;;;;5072454;28;20621;-68
2023/04/09 07:56:48;;;;;;;14.40;12.90;;;17.20;53.90;;;;;;5072605;28;20170;-70
2023/04/09 07:59:16;;;;;;;17.98;14.45;;;17.20;53.40;;;;;;5071339;28;20227;-70
2023/04/09 08:01:42;;;;;;;18.83;15.93;;;17.20;53.10;;;;;;5072018;28;20217;-70
2023/04/09 08:04:08;;;;;;;18.17;15.38;;;17.20;52.70;;;;;;5072070;28;20522;-71
2023/04/09 08:06:33;;;;;;;17.08;15.27;;;17.20;52.50;;;;;;5071662;28;20178;-69
2023/04/09 08:08:59;;;;;;;19.08;15.77;;;17.20;52.50;;;;;;5072341;28;20198;-70
2023/04/09 08:11:25;;;;;;;17.85;14.70;;;17.20;52.60;;;;;;5072101;28;20551;-69
2023/04/09 08:13:53;;;;;;;16.23;14.45;;;17.20;52.70;;;;;;5071669;28;20178;-69
2023/04/09 08:16:20;;;;;;;15.65;13.85;;;17.20;52.80;;;;;;5071994;28;20206;-68
2023/04/09 08:18:46;;;;;;;15.15;13.00;;;17.20;53.00;;;;;;5072458;28;20240;-70
2023/04/09 08:21:11;;;;;;;14.90;12.65;;;17.20;53.20;;;;;;5070964;28;20693;-68
2023/04/09 08:23:37;;;;;;;13.18;11.85;;;17.20;53.30;;;;;;5072449;28;20239;-70
2023/04/09 08:26:02;;;;;;;13.25;11.85;;;17.30;53.40;;;;;;5072406;28;20637;-71
2023/04/09 08:28:28;;;;;;;14.23;11.05;;;17.30;53.50;;;;;;5070640;28;20512;-69
2023/04/09 08:30:53;;;;;;;13.88;11.85;;;17.30;53.50;;;;;;5072083;28;20171;-74
2023/04/09 08:33:19;;;;;;;12.50;11.05;;;17.30;53.60;;;;;;5071678;28;20180;-69
2023/04/09 08:35:44;;;;;;;13.45;11.27;;;17.30;53.70;;;;;;5071477;28;20178;-75
2023/04/09 08:38:10;;;;;;;13.85;11.15;;;17.30;53.70;;;;;;5071742;28;20174;-73
2023/04/09 08:40:36;;;;;;;18.63;13.38;;;17.30;53.70;;;;;;5071986;28;20222;-74
2023/04/09 08:43:04;;;;;;;14.18;11.95;;;17.30;53.30;;;;;;5071499;28;20550;-66
2023/04/09 08:45:30;;;;;;;12.45;11.15;;;17.30;53.50;;;;;;5071950;28;20175;-65
2023/04/09 08:47:59;;;;;;;13.98;11.52;;;17.40;53.50;;;;;;5071446;28;20170;-66
2023/04/09 08:50:25;;;;;;;13.70;10.77;;;17.40;53.60;;;;;;5071583;28;20663;-65
2023/04/09 08:52:51;;;;;;;12.55;10.82;;;17.40;53.70;;;;;;5070512;28;20171;-66
2023/04/09 08:55:16;;;;;;;12.35;10.75;;;17.40;53.80;;;;;;5069789;28;20194;-66
2023/04/09 08:57:42;;;;;;;12.43;10.32;;;17.40;53.80;;;;;;5071825;28;20170;-67
2023/04/09 09:00:08;;;;;;;12.43;10.63;;;17.50;53.90;;;;;;5071285;28;20182;-67
2023/04/09 09:02:33;;;;;;;12.48;10.05;;;17.50;53.90;;;;;;5069735;28;20213;-67
2023/04/09 09:04:59;;;;;;;13.65;10.68;;;17.50;53.90;;;;;;5071912;28;20182;-67
2023/04/09 09:07:26;;;;;;;10.27;9.10;;;17.50;53.90;;;;;;5071617;28;20395;-66
2023/04/09 09:09:57;;;;;;;10.32;9.23;;;17.50;53.90;;;;;;5071185;28;20171;-66
2023/04/09 09:12:33;;;;;;;15.63;10.15;;;17.50;54.00;;;;;;5071355;28;20509;-66
2023/04/09 09:14:58;;;;;;;11.02;9.82;;;17.50;54.10;;;;;;5071933;28;20171;-67
2023/04/09 09:17:24;;;;;;;11.13;9.75;;;17.50;54.10;;;;;;5069572;28;20186;-66
2023/04/09 09:19:50;;;;;;;10.32;9.20;;;17.50;54.10;;;;;;5071453;28;20214;-67
2023/04/09 09:22:15;;;;;;;10.18;9.02;;;17.50;54.10;;;;;;5071310;28;20175;-66
2023/04/09 09:24:47;;;;;;;9.65;8.70;;;17.50;54.10;;;;;;5069716;28;20551;-66
2023/04/09 09:27:35;;;;;;;10.82;9.50;;;17.50;54.00;;;;;;5071188;28;20266;-66
2023/04/09 09:30:02;;;;;;;12.00;8.88;;;17.50;54.10;;;;;;5070798;28;20170;-67
2023/04/09 09:32:27;;;;;;;10.63;9.52;;;17.60;54.10;;;;;;5071515;28;20205;-68
2023/04/09 09:35:03;;;;;;;9.48;8.57;;;17.60;54.20;;;;;;5070507;28;20171;-68
2023/04/09 09:37:29;;;;;;;11.43;9.30;;;17.60;54.10;;;;;;5070555;28;20202;-68
2023/04/09 09:39:55;;;;;;;10.85;9.60;;;17.60;54.10;;;;;;5072963;28;20170;-67
2023/04/09 09:42:20;;;;;;;10.70;8.63;;;17.60;54.20;;;;;;5074819;28;20182;-67
2023/04/09 09:44:46;;;;;;;13.30;8.98;;;17.60;54.10;;;;;;5074314;28;20265;-67
2023/04/09 09:47:15;;;;;;;9.98;8.95;;;17.70;54.20;;;;;;5074968;28;20170;-67
2023/04/09 09:49:40;;;;;;;10.25;8.63;;;17.70;54.20;;;;;;5075153;28;20262;-67
2023/04/09 09:52:09;;;;;;;9.90;8.90;;;17.70;54.20;;;;;;5073957;28;20185;-67
2023/04/09 09:54:41;;;;;;;9.30;8.38;;;17.70;54.20;;;;;;5075083;28;20178;-67
2023/04/09 09:57:08;;;;;;;8.93;7.97;;;17.70;54.20;;;;;;5074684;28;20183;-68
2023/04/09 09:59:36;;;;;;;10.63;8.85;;;17.70;54.20;;;;;;5072806;28;20558;-68
2023/04/09 10:02:04;;;;;;;9.15;8.23;;;17.80;54.10;;;;;;5074817;28;20674;-68
2023/04/09 10:04:32;;;;;;;8.77;7.97;;;17.70;54.10;;;;;;5074869;28;20235;-67
2023/04/09 10:06:58;;;;;;;9.48;8.30;;;17.80;54.10;;;;;;5073998;28;20179;-67
2023/04/09 10:09:24;;;;;;;9.02;8.02;;;17.80;54.10;;;;;;5073023;28;20177;-66
2023/04/09 10:11:50;;;;;;;9.48;8.57;;;17.80;54.00;;;;;;5073262;28;20644;-67
2023/04/09 10:14:15;;;;;;;8.98;8.10;;;17.80;54.00;;;;;;5072467;28;20222;-67
2023/04/09 10:16:41;;;;;;;9.25;8.35;;;17.80;54.00;;;;;;5073404;28;20538;-67
2023/04/09 10:19:11;;;;;;;10.35;8.65;;;17.80;54.00;;;;;;5073550;28;20171;-68
2023/04/09 10:21:52;;;;;;;8.65;7.78;;;17.90;54.10;;;;;;5073278;28;20297;-66
2023/04/09 10:24:17;;;;;;;8.52;7.72;;;17.90;54.10;;;;;;5073091;28;20230;-67
2023/04/09 10:26:46;;;;;;;9.15;8.25;;;17.90;54.10;;;;;;5072686;28;20290;-67
2023/04/09 10:29:15;;;;;;;9.88;8.10;;;18.00;54.10;;;;;;5072993;28;20246;-68
2023/04/09 10:32:03;;;;;;;8.52;7.72;;;17.90;54.00;;;;;;5074241;28;20637;-68
2023/04/09 10:34:28;;;;;;;10.55;8.52;;;18.00;54.10;;;;;;5073465;28;20273;-68
2023/04/09 10:36:58;;;;;;;8.93;7.47;;;18.00;54.00;;;;;;5072910;28;20194;-68
2023/04/09 10:39:30;;;;;;;8.60;7.70;;;18.00;54.00;;;;;;5073898;28;20179;-67
2023/04/09 10:41:57;;;;;;;8.38;7.57;;;18.00;54.00;;;;;;5073278;28;20214;-68
2023/04/09 10:44:25;;;;;;;9.02;8.10;;;18.00;54.00;;;;;;5073651;28;20189;-67
2023/04/09 10:46:53;;;;;;;8.80;8.00;;;17.90;54.20;;;;;;5074282;28;20178;-68
2023/04/09 10:49:23;;;;;;;7.57;6.90;;;17.90;54.40;;;;;;5073273;28;20171;-67
2023/04/09 10:52:01;;;;;;;8.00;7.20;;;17.80;54.40;;;;;;5073724;28;20178;-69
2023/04/09 10:54:33;;;;;;;8.05;7.25;;;17.90;54.30;;;;;;5072992;28;20182;-67
2023/04/09 10:57:12;;;;;;;8.20;7.50;;;17.90;54.40;;;;;;5073687;28;20178;-69
2023/04/09 10:59:43;;;;;;;8.35;7.55;;;18.00;54.20;;;;;;5073804;28;20187;-68
2023/04/09 11:02:19;;;;;;;7.65;6.85;;;17.90;54.20;;;;;;5072517;28;20271;-68
2023/04/09 11:05:22;;;;;;;8.43;7.63;;;17.80;54.30;;;;;;5072299;28;20609;-68
2023/04/09 11:08:11;;;;;;;8.00;7.20;;;17.90;54.30;;;;;;5073379;28;20170;-67
2023/04/09 11:10:40;;;;;;;9.32;7.70;;;17.90;54.30;;;;;;5072702;28;20228;-67
2023/04/09 11:13:09;;;;;;;7.75;6.82;;;17.90;54.30;;;;;;5072869;28;20642;-67
2023/04/09 11:15:36;;;;;;;9.27;7.15;;;18.00;54.30;;;;;;5072559;28;20185;-67
2023/04/09 11:18:02;;;;;;;7.63;6.93;;;18.00;54.20;;;;;;5073625;28;20535;-67
2023/04/09 11:20:29;;;;;;;8.40;7.60;;;18.00;54.20;;;;;;5072795;28;20696;-67
2023/04/09 11:22:55;;;;;;;7.88;7.18;;;18.00;54.10;;;;;;5072400;28;20747;-67
2023/04/09 11:25:22;;;;;;;8.02;7.32;;;18.00;54.10;;;;;;5072774;28;20257;-66
2023/04/09 11:27:49;;;;;;;7.65;6.95;;;18.00;54.10;;;;;;5073121;28;20263;-67
2023/04/09 11:30:15;;;;;;;8.05;7.25;;;18.10;54.10;;;;;;5071972;28;20188;-67
2023/04/09 11:32:40;;;;;;;7.30;6.60;;;18.10;54.10;;;;;;5073197;28;20171;-69
2023/04/09 11:35:12;;;;;;;7.90;7.10;;;18.20;54.00;;;;;;5072612;28;20613;-68
2023/04/09 11:37:38;;;;;;;7.43;6.72;;;18.10;54.00;;;;;;5072276;28;20186;-68
2023/04/09 11:40:04;;;;;;;7.20;6.50;;;18.20;54.00;;;;;;5072820;28;20548;-67
2023/04/09 11:42:33;;;;;;;7.60;6.55;;;18.20;53.90;;;;;;5072663;28;20514;-68
2023/04/09 11:44:59;;;;;;;6.93;6.25;;;18.20;53.90;;;;;;5072242;28;20177;-68
2023/04/09 11:47:26;;;;;;;7.18;6.55;;;18.20;53.80;;;;;;5071454;28;20221;-67
2023/04/09 11:49:51;;;;;;;7.50;6.30;;;18.20;53.90;;;;;;5072814;28;20170;-66
2023/04/09 11:52:17;;;;;;;7.75;7.05;;;18.30;53.90;;;;;;5070458;28;20170;-67
2023/04/09 11:54:48;;;;;;;6.63;6.03;;;18.30;53.80;;;;;;5071260;28;20174;-67
2023/04/09 11:57:13;;;;;;;6.93;6.32;;;18.30;53.70;;;;;;5072149;28;20621;-68
2023/04/09 11:59:39;;;;;;;6.95;6.20;;;18.40;53.70;;;;;;5071952;28;20183;-67
2023/04/09 12:02:06;;;;;;;6.30;5.70;;;18.30;53.70;;;;;;5070345;28;20220;-68
2023/04/09 12:04:31;;;;;;;6.30;5.70;;;18.20;54.50;;;;;;5072646;28;20544;-68
2023/04/09 12:07:00;;;;;;;6.72;6.13;;;18.30;53.80;;;;;;5071746;28;20617;-66
2023/04/09 12:09:26;;;;;;;6.78;6.10;;;18.30;53.70;;;;;;5070913;28;20167;-67
2023/04/09 12:11:51;;;;;;;6.85;6.15;;;18.40;53.60;;;;;;5071592;28;20170;-67
2023/04/09 12:14:17;;;;;;;6.50;5.90;;;18.40;53.60;;;;;;5072140;28;20190;-66
2023/04/09 12:16:43;;;;;;;6.78;6.15;;;18.40;53.50;;;;;;5072402;28;20166;-68
2023/04/09 12:19:10;;;;;;;5.97;5.45;;;18.50;53.50;;;;;;5071196;28;20178;-68
2023/04/09 12:21:48;;;;;;;6.65;6.05;;;18.50;53.50;;;;;;5072380;28;20296;-66
2023/04/09 12:24:15;;;;;;;6.10;5.60;;;18.50;53.50;;;;;;5071895;28;20202;-67
2023/04/09 12:26:41;;;;;;;6.55;5.95;;;18.50;53.40;;;;;;5071949;28;20332;-67
2023/04/09 12:29:07;;;;;;;6.43;5.82;;;18.40;53.40;;;;;;5071913;28;20171;-69
2023/04/09 12:31:32;;;;;;;6.70;6.10;;;18.50;53.30;;;;;;5072331;28;20273;-69
2023/04/09 12:33:58;;;;;;;6.72;6.03;;;18.60;53.20;;;;;;5071359;28;20166;-68
2023/04/09 12:36:23;;;;;;;6.20;5.60;;;18.70;53.10;;;;;;5071891;28;20669;-68
2023/04/09 12:38:49;;;;;;;6.20;5.70;;;18.70;53.10;;;;;;5072065;28;20257;-68